createdAt,value
2018-03-06T00:01:52.884Z,62.00
2018-03-06T00:04:20.652Z,56.55
2018-03-06T00:06:48.364Z,57.13
2018-03-06T00:09:16.177Z,63.35
2018-03-06T00:11:43.892Z,57.70
2018-03-06T00:14:11.607Z,60.38
2018-03-06T00:16:39.340Z,57.55
2018-03-06T00:19:07.055Z,61.00
2018-03-06T00:21:34.904Z,57.47
2018-03-06T00:24:02.621Z,55.03
2018-03-06T00:26:30.433Z,60.55
2018-03-06T00:28:58.140Z,58.30
2018-03-06T00:31:25.880Z,61.97
2018-03-06T00:33:53.600Z,54.92
2018-03-06T00:36:21.393Z,55.33
2018-03-06T00:38:49.105Z,56.05
2018-03-06T00:41:16.917Z,56.58
2018-03-06T00:43:44.667Z,53.60
2018-03-06T00:46:12.388Z,60.92
2018-03-06T00:48:40.120Z,62.38
2018-03-06T00:51:07.844Z,55.92
2018-03-06T00:53:35.580Z,60.45
2018-03-06T00:56:03.297Z,60.40
2018-03-06T00:58:31.040Z,64.90
2018-03-06T01:00:58.759Z,60.12
2018-03-06T01:03:26.499Z,63.85
2018-03-06T01:05:54.220Z,61.97
2018-03-06T01:08:22.048Z,64.95
2018-03-06T01:10:49.747Z,59.80
2018-03-06T01:13:17.468Z,63.95
2018-03-06T01:15:45.213Z,59.47
2018-03-06T01:18:12.924Z,63.15
2018-03-06T01:20:40.665Z,60.30
2018-03-06T01:23:08.422Z,63.10
2018-03-06T01:25:36.208Z,57.08
2018-03-06T01:28:03.908Z,60.10
2018-03-06T01:30:31.711Z,57.17
2018-03-06T01:32:59.497Z,59.28
2018-03-06T01:35:27.348Z,61.58
2018-03-06T01:37:55.070Z,57.22
2018-03-06T01:40:22.785Z,58.47
2018-03-06T01:42:50.544Z,59.50
2018-03-06T01:45:18.402Z,60.58
2018-03-06T01:47:46.144Z,63.53
2018-03-06T01:50:13.868Z,58.95
2018-03-06T01:52:41.703Z,65.05
2018-03-06T01:55:09.411Z,62.62
2018-03-06T01:57:37.148Z,61.45
2018-03-06T02:00:04.896Z,63.28
2018-03-06T02:02:32.636Z,60.83
2018-03-06T02:05:00.428Z,55.28
2018-03-06T02:07:28.164Z,60.12
2018-03-06T02:09:55.879Z,60.20
2018-03-06T02:12:23.724Z,59.30
2018-03-06T02:14:51.440Z,64.05
2018-03-06T02:17:19.256Z,59.72
2018-03-06T02:19:46.992Z,62.20
2018-03-06T02:22:14.783Z,60.85
2018-03-06T02:24:42.517Z,66.87
2018-03-06T02:27:10.317Z,60.53
2018-03-06T02:29:38.080Z,56.25
2018-03-06T02:32:05.848Z,59.65
2018-03-06T02:34:33.706Z,59.75
2018-03-06T02:37:01.416Z,63.05
2018-03-06T02:39:29.151Z,66.82
2018-03-06T02:41:56.914Z,66.30
2018-03-06T02:44:24.652Z,61.40
2018-03-06T02:46:52.445Z,61.20
2018-03-06T02:49:20.248Z,64.05
2018-03-06T02:51:47.960Z,62.33
2018-03-06T02:54:15.664Z,67.53
2018-03-06T02:56:43.500Z,63.63
2018-03-06T02:59:11.225Z,58.53
2018-03-06T03:01:38.989Z,64.97
2018-03-06T03:04:06.798Z,60.63
2018-03-06T03:06:34.567Z,59.28
2018-03-06T03:09:02.288Z,62.00
2018-03-06T03:11:30.025Z,61.37
2018-03-06T03:13:57.743Z,56.78
2018-03-06T03:16:25.480Z,53.67
2018-03-06T03:18:53.290Z,56.40
2018-03-06T03:21:21.053Z,54.50
2018-03-06T03:23:48.814Z,60.15
2018-03-06T03:26:16.552Z,62.50
2018-03-06T03:28:45.268Z,57.60
2018-03-06T03:31:13.005Z,60.97
2018-03-06T03:33:40.806Z,59.72
2018-03-06T03:36:08.616Z,56.88
2018-03-06T03:38:36.392Z,56.53
2018-03-06T03:41:04.136Z,56.75
2018-03-06T03:43:31.848Z,57.65
2018-03-06T03:46:00.444Z,56.17
2018-03-06T03:48:28.209Z,57.75
2018-03-06T03:50:55.977Z,56.28
2018-03-06T03:53:23.736Z,55.17
2018-03-06T03:55:51.480Z,56.67
2018-03-06T03:58:19.188Z,56.08
2018-03-06T04:00:46.908Z,59.20
2018-03-06T04:03:14.697Z,58.00
2018-03-06T04:05:42.461Z,54.53
2018-03-06T04:08:10.201Z,54.58
2018-03-06T04:10:37.905Z,54.90
2018-03-06T04:13:05.642Z,60.70
2018-03-06T04:15:33.356Z,56.22
2018-03-06T04:18:01.100Z,57.40
2018-03-06T04:20:28.847Z,52.95
2018-03-06T04:22:56.603Z,57.62
2018-03-06T04:25:24.589Z,59.00
2018-03-06T04:27:52.352Z,53.20
2018-03-06T04:30:20.080Z,55.08
2018-03-06T04:32:47.885Z,51.55
2018-03-06T04:35:15.645Z,57.03
2018-03-06T04:37:43.356Z,54.88
2018-03-06T04:40:11.104Z,55.00
2018-03-06T04:42:38.816Z,53.00
2018-03-06T04:45:06.559Z,53.40
2018-03-06T04:47:34.372Z,50.80
2018-03-06T04:50:02.132Z,52.70
2018-03-06T04:52:29.855Z,53.55
2018-03-06T04:54:57.622Z,58.28
2018-03-06T04:57:25.341Z,62.17
2018-03-06T04:59:53.097Z,60.12
2018-03-06T05:02:20.837Z,59.72
2018-03-06T05:04:48.620Z,59.33
2018-03-06T05:07:16.364Z,56.80
2018-03-06T05:09:44.144Z,63.60
2018-03-06T05:12:11.885Z,55.70
2018-03-06T05:14:39.689Z,60.90
2018-03-06T05:17:07.428Z,59.83
2018-03-06T05:19:35.213Z,57.90
2018-03-06T05:22:02.943Z,58.45
2018-03-06T05:24:30.746Z,54.05
2018-03-06T05:26:58.616Z,63.45
2018-03-06T05:29:26.376Z,61.35
2018-03-06T05:31:54.145Z,57.65
2018-03-06T05:34:21.884Z,55.35
2018-03-06T05:36:50.038Z,62.20
2018-03-06T05:39:17.780Z,54.35
2018-03-06T05:41:45.620Z,56.80
2018-03-06T05:44:13.353Z,54.10
2018-03-06T05:46:41.068Z,58.67
2018-03-06T05:49:08.908Z,63.42
2018-03-06T05:51:36.612Z,70.57
2018-03-06T05:54:04.372Z,67.28
2018-03-06T05:56:32.092Z,64.57
2018-03-06T05:58:59.809Z,64.57
2018-03-06T06:01:27.552Z,69.97
2018-03-06T06:03:55.291Z,67.72
2018-03-06T06:06:23.064Z,69.47
2018-03-06T06:08:50.824Z,68.97
2018-03-06T06:11:18.685Z,65.40
2018-03-06T06:13:46.405Z,66.22
2018-03-06T06:16:14.120Z,67.40
2018-03-06T06:18:41.888Z,72.78
2018-03-06T06:21:09.605Z,67.62
2018-03-06T06:23:37.296Z,67.35
2018-03-06T06:26:05.056Z,68.75
2018-03-06T06:28:32.749Z,68.00
2018-03-06T06:31:00.461Z,65.53
2018-03-06T06:33:28.177Z,69.05
2018-03-06T06:35:55.936Z,69.57
2018-03-06T06:38:23.703Z,71.03
2018-03-06T06:40:51.464Z,71.78
2018-03-06T06:43:19.193Z,71.75
2018-03-06T06:45:47.008Z,69.82
2018-03-06T06:48:14.760Z,70.93
2018-03-06T06:50:42.480Z,69.30
2018-03-06T06:53:10.192Z,69.87
2018-03-06T06:55:37.886Z,67.82
2018-03-06T06:58:05.616Z,66.25
2018-03-06T07:00:33.385Z,64.10
2018-03-06T07:03:01.080Z,59.40
2018-03-06T07:05:28.905Z,61.55
2018-03-06T07:07:56.679Z,61.10
2018-03-06T07:10:24.409Z,61.05
2018-03-06T07:12:52.200Z,61.15
2018-03-06T07:15:19.921Z,59.83
2018-03-06T07:17:47.731Z,61.20
2018-03-06T07:20:15.509Z,57.17
2018-03-06T07:22:43.268Z,57.50
2018-03-06T07:25:11.128Z,63.95
2018-03-06T07:27:38.910Z,56.80
2018-03-06T07:30:06.762Z,62.75
2018-03-06T07:32:34.460Z,61.42
2018-03-06T07:35:02.197Z,60.08
2018-03-06T07:37:29.968Z,63.50
2018-03-06T07:39:57.721Z,58.67
2018-03-06T07:42:25.498Z,62.88
2018-03-06T07:44:53.255Z,57.97
2018-03-06T07:47:21.035Z,66.72
2018-03-06T07:49:48.793Z,65.05
2018-03-06T07:52:16.530Z,66.45
2018-03-06T07:54:44.220Z,65.95
2018-03-06T07:57:12.047Z,73.62
2018-03-06T07:59:39.752Z,69.82
2018-03-06T08:02:07.517Z,68.15
2018-03-06T08:04:35.285Z,74.30
2018-03-06T08:07:03.041Z,70.25
2018-03-06T08:09:30.859Z,70.03
2018-03-06T08:11:58.727Z,71.37
2018-03-06T08:14:26.397Z,71.60
2018-03-06T08:16:54.104Z,72.07
2018-03-06T08:19:21.819Z,67.65
2018-03-06T08:21:49.535Z,73.10
2018-03-06T08:24:17.297Z,73.28
2018-03-06T08:26:45.001Z,77.32
2018-03-06T08:29:12.819Z,76.22
2018-03-06T08:31:40.492Z,75.63
2018-03-06T08:34:08.124Z,81.97
2018-03-06T08:36:35.817Z,78.80
2018-03-06T08:39:03.453Z,76.57
2018-03-06T08:41:31.141Z,87.77
2018-03-06T08:43:58.772Z,83.00
2018-03-06T08:46:26.397Z,85.30
2018-03-06T08:48:54.028Z,82.60
2018-03-06T08:51:21.660Z,85.53
2018-03-06T08:53:49.268Z,86.40
2018-03-06T08:56:16.901Z,83.73
2018-03-06T08:58:45.448Z,83.40
2018-03-06T09:01:13.160Z,87.40
2018-03-06T09:03:40.838Z,83.50
2018-03-06T09:06:08.489Z,85.07
2018-03-06T09:08:36.152Z,87.67
2018-03-06T09:11:03.804Z,88.27
2018-03-06T09:13:31.416Z,83.20
2018-03-06T09:15:59.140Z,89.73
2018-03-06T09:18:26.800Z,87.97
2018-03-06T09:20:54.416Z,85.30
2018-03-06T09:23:22.123Z,84.17
2018-03-06T09:25:49.735Z,83.80
2018-03-06T09:28:17.369Z,82.27
2018-03-06T09:30:45.024Z,83.47
2018-03-06T09:33:12.771Z,89.93
2018-03-06T09:35:40.381Z,87.17
2018-03-06T09:38:08.104Z,82.80
2018-03-06T09:40:35.764Z,84.57
2018-03-06T09:43:03.428Z,78.07
2018-03-06T09:45:31.126Z,81.57
2018-03-06T09:47:58.952Z,80.27
2018-03-06T09:50:26.624Z,80.43
2018-03-06T09:52:54.285Z,71.93
2018-03-06T09:55:21.948Z,83.13
2018-03-06T09:57:49.713Z,79.90
2018-03-06T10:00:17.325Z,80.87
2018-03-06T10:02:44.936Z,77.53
2018-03-06T10:05:12.596Z,78.83
2018-03-06T10:07:40.212Z,80.17
2018-03-06T10:10:07.925Z,74.40
2018-03-06T10:12:35.588Z,88.97
2018-03-06T10:15:03.247Z,79.33
2018-03-06T10:17:30.916Z,76.90
2018-03-06T10:19:58.579Z,67.87
2018-03-06T10:22:26.202Z,72.47
2018-03-06T10:24:53.893Z,70.70
2018-03-06T10:27:21.564Z,72.37
2018-03-06T10:29:49.196Z,70.30
2018-03-06T10:32:16.888Z,58.27
2018-03-06T10:34:44.521Z,67.87
2018-03-06T10:37:12.218Z,69.13
2018-03-06T10:39:39.848Z,76.40
2018-03-06T10:42:07.544Z,66.40
2018-03-06T10:44:35.180Z,72.47
2018-03-06T10:47:02.800Z,67.80
2018-03-06T10:49:30.480Z,66.00
2018-03-06T10:51:58.095Z,71.77
2018-03-06T10:54:26.092Z,60.10
2018-03-06T10:56:53.720Z,67.73
2018-03-06T10:59:21.332Z,65.97
2018-03-06T11:01:48.964Z,71.10
2018-03-06T11:04:16.608Z,71.13
2018-03-06T11:06:44.367Z,65.67
2018-03-06T11:09:12.033Z,73.80
2018-03-06T11:11:39.680Z,71.30
2018-03-06T11:14:07.292Z,78.00
2018-03-06T11:16:34.924Z,78.97
2018-03-06T11:19:02.541Z,87.33
2018-03-06T11:21:30.185Z,86.13
2018-03-06T11:23:57.813Z,85.30
2018-03-06T11:26:25.472Z,87.63
2018-03-06T11:28:53.136Z,90.90
2018-03-06T11:31:20.776Z,88.50
2018-03-06T11:33:48.392Z,84.20
2018-03-06T11:36:16.028Z,75.90
2018-03-06T11:38:43.683Z,78.40
2018-03-06T11:41:11.352Z,85.30
2018-03-06T11:43:38.963Z,78.37
2018-03-06T11:46:06.585Z,74.97
2018-03-06T11:48:34.217Z,70.50
2018-03-06T11:51:01.896Z,75.23
2018-03-06T11:53:29.560Z,76.07
2018-03-06T11:55:57.242Z,76.77
2018-03-06T11:58:24.885Z,84.30
2018-03-06T12:00:52.496Z,80.53
2018-03-06T12:03:20.137Z,79.17
2018-03-06T12:05:47.773Z,68.87
2018-03-06T12:08:15.408Z,69.33
2018-03-06T12:10:43.025Z,76.27
2018-03-06T12:13:10.657Z,84.47
2018-03-06T12:15:38.273Z,76.57
2018-03-06T12:18:05.913Z,79.13
2018-03-06T12:20:33.560Z,77.60
2018-03-06T12:23:01.313Z,72.83
2018-03-06T12:25:28.975Z,82.70
2018-03-06T12:27:56.583Z,71.97
2018-03-06T12:30:24.228Z,79.40
2018-03-06T12:32:51.851Z,66.03
2018-03-06T12:35:19.511Z,61.67
2018-03-06T12:37:47.185Z,64.47
2018-03-06T12:40:14.844Z,58.43
2018-03-06T12:42:42.517Z,62.43
2018-03-06T12:45:10.169Z,73.60
2018-03-06T12:47:37.832Z,75.50
2018-03-06T12:50:05.503Z,66.50
2018-03-06T12:52:33.161Z,61.10
2018-03-06T12:55:00.873Z,72.70
2018-03-06T12:57:28.464Z,71.80
2018-03-06T12:59:56.149Z,76.03
2018-03-06T13:02:23.817Z,69.40
2018-03-06T13:04:51.428Z,68.70
2018-03-06T13:07:19.064Z,80.00
2018-03-06T13:09:46.681Z,75.97
2018-03-06T13:12:14.323Z,78.67
2018-03-06T13:14:41.936Z,68.13
2018-03-06T13:17:09.576Z,74.13
2018-03-06T13:19:37.188Z,76.63
2018-03-06T13:22:04.821Z,71.13
2018-03-06T13:24:32.562Z,71.83
2018-03-06T13:27:00.236Z,74.13
2018-03-06T13:29:27.853Z,71.33
2018-03-06T13:31:55.489Z,71.60
2018-03-06T13:34:23.099Z,69.57
2018-03-06T13:36:50.737Z,68.40
2018-03-06T13:39:18.444Z,64.00
2018-03-06T13:41:46.115Z,67.80
2018-03-06T13:44:13.752Z,72.37
2018-03-06T13:46:41.369Z,68.77
2018-03-06T13:49:09.000Z,68.60
2018-03-06T13:51:36.751Z,71.80
2018-03-06T13:54:04.424Z,67.53
2018-03-06T13:56:32.036Z,71.33
2018-03-06T13:58:59.756Z,60.57
2018-03-06T14:01:27.416Z,70.30
2018-03-06T14:03:55.168Z,64.93
2018-03-06T14:06:22.935Z,66.33
2018-03-06T14:08:50.568Z,61.40
2018-03-06T14:11:18.182Z,60.57
2018-03-06T14:13:45.828Z,61.63
2018-03-06T14:16:13.585Z,65.23
2018-03-06T14:18:41.193Z,64.73
2018-03-06T14:21:08.920Z,64.23
2018-03-06T14:23:36.584Z,62.23
2018-03-06T14:26:04.212Z,61.60
2018-03-06T14:28:31.820Z,64.13
2018-03-06T14:30:59.664Z,63.67
2018-03-06T14:33:27.336Z,62.73
2018-03-06T14:35:54.996Z,60.13
2018-03-06T14:38:22.652Z,56.87
2018-03-06T14:40:50.322Z,56.57
2018-03-06T14:43:17.956Z,56.20
2018-03-06T14:45:45.640Z,60.37
2018-03-06T14:48:13.312Z,56.80
2018-03-06T14:53:13.860Z,61.37
2018-03-06T14:55:41.526Z,55.10
2018-03-06T14:58:09.284Z,57.73
2018-03-06T15:00:37.668Z,54.10
2018-03-06T15:03:05.332Z,59.60
2018-03-06T15:05:32.977Z,60.47
2018-03-06T15:08:00.592Z,53.03
2018-03-06T15:10:28.228Z,46.50
2018-03-06T15:12:55.843Z,60.47
2018-03-06T15:15:23.541Z,59.77
2018-03-06T15:17:51.152Z,60.73
2018-03-06T15:20:18.794Z,59.40
2018-03-06T15:22:46.428Z,60.67
2018-03-06T15:25:14.092Z,58.90
2018-03-06T15:27:41.705Z,61.30
2018-03-06T15:30:09.426Z,59.50
2018-03-06T15:32:37.080Z,61.47
2018-03-06T15:35:04.692Z,64.70
2018-03-06T15:37:32.329Z,62.50
2018-03-06T15:39:59.949Z,62.10
2018-03-06T15:42:27.584Z,65.47
2018-03-06T15:44:55.197Z,60.90
2018-03-06T15:47:22.833Z,59.17
2018-03-06T15:49:50.512Z,59.90
2018-03-06T15:52:18.176Z,65.67
2018-03-06T15:54:45.792Z,61.40
2018-03-06T15:57:13.426Z,61.23
2018-03-06T15:59:41.040Z,61.20
2018-03-06T16:02:08.724Z,67.53
2018-03-06T16:04:36.343Z,64.47
2018-03-06T16:07:04.000Z,64.13
2018-03-06T16:09:31.617Z,63.43
2018-03-06T16:11:59.376Z,63.53
2018-03-06T16:14:27.042Z,62.50
2018-03-06T16:16:54.694Z,69.00
2018-03-06T16:19:22.328Z,63.10
2018-03-06T16:21:49.941Z,57.80
2018-03-06T16:24:17.593Z,62.07
2018-03-06T16:26:45.252Z,65.57
2018-03-06T16:29:12.884Z,63.00
2018-03-06T16:31:40.579Z,62.10
2018-03-06T16:34:08.240Z,64.50
2018-03-06T16:36:35.997Z,63.50
2018-03-06T16:39:03.632Z,63.37
2018-03-06T16:41:31.328Z,60.13
2018-03-06T16:43:58.992Z,65.60
2018-03-06T16:46:26.657Z,66.70
2018-03-06T16:48:54.324Z,66.67
2018-03-06T16:51:21.961Z,63.63
2018-03-06T16:53:49.575Z,65.43
2018-03-06T16:56:17.209Z,71.80
2018-03-06T16:58:44.820Z,68.93
2018-03-06T17:01:12.461Z,65.70
2018-03-06T17:03:40.073Z,65.87
2018-03-06T17:06:07.721Z,68.83
2018-03-06T17:08:35.336Z,67.87
2018-03-06T17:11:02.969Z,68.53
2018-03-06T17:13:30.640Z,70.10
2018-03-06T17:15:58.409Z,66.67
2018-03-06T17:18:26.024Z,68.50
2018-03-06T17:20:53.638Z,63.43
2018-03-06T17:23:21.276Z,66.27
2018-03-06T17:25:48.954Z,65.30
2018-03-06T17:28:16.584Z,64.03
2018-03-06T17:30:44.198Z,68.70
2018-03-06T17:33:11.940Z,65.17
2018-03-06T17:35:39.552Z,67.83
2018-03-06T17:38:07.184Z,67.37
2018-03-06T17:40:34.833Z,64.87
2018-03-06T17:43:02.492Z,61.93
2018-03-06T17:45:30.112Z,63.90
2018-03-06T17:47:57.745Z,65.70
2018-03-06T17:50:25.356Z,64.80
2018-03-06T17:52:53.005Z,67.50
2018-03-06T17:55:20.616Z,72.67
2018-03-06T17:57:48.228Z,66.77
2018-03-06T18:00:15.936Z,63.10
2018-03-06T18:02:43.552Z,63.83
2018-03-06T18:05:11.253Z,65.83
2018-03-06T18:07:38.912Z,71.23
2018-03-06T18:10:06.576Z,74.07
2018-03-06T18:12:34.243Z,77.20
2018-03-06T18:15:01.876Z,70.50
2018-03-06T18:17:29.565Z,72.47
2018-03-06T18:19:57.323Z,71.37
2018-03-06T18:22:24.932Z,80.63
2018-03-06T18:24:52.569Z,72.10
2018-03-06T18:27:20.220Z,74.43
2018-03-06T18:29:47.852Z,73.27
2018-03-06T18:32:15.552Z,75.57
2018-03-06T18:34:43.309Z,73.80
2018-03-06T18:37:10.976Z,75.30
2018-03-06T18:39:38.594Z,77.67
2018-03-06T18:42:06.411Z,83.80
2018-03-06T18:44:34.052Z,81.77
2018-03-06T18:47:01.688Z,81.50
2018-03-06T18:49:29.317Z,77.97
2018-03-06T18:51:57.045Z,80.77
2018-03-06T18:54:24.706Z,79.50
2018-03-06T18:56:52.376Z,79.43
2018-03-06T18:59:19.998Z,83.67
2018-03-06T19:05:02.776Z,81.77
2018-03-06T19:07:30.409Z,74.27
2018-03-06T19:09:58.030Z,77.27
2018-03-06T19:12:25.768Z,79.83
2018-03-06T19:14:53.384Z,78.57
2018-03-06T19:17:21.090Z,79.63
2018-03-06T19:19:48.704Z,81.10
2018-03-06T19:22:16.458Z,81.33
2018-03-06T19:24:44.180Z,77.80
2018-03-06T19:27:11.835Z,79.63
2018-03-06T19:29:39.500Z,78.77
2018-03-06T19:32:07.112Z,76.60
2018-03-06T19:34:35.086Z,85.20
2018-03-06T19:37:02.712Z,82.27
2018-03-06T19:39:30.345Z,78.90
2018-03-06T19:41:58.025Z,81.67
2018-03-06T19:44:25.733Z,78.33
2018-03-06T19:46:53.324Z,82.83
2018-03-06T19:49:21.117Z,85.27
2018-03-06T19:51:48.777Z,84.07
2018-03-06T19:54:16.413Z,79.70
2018-03-06T19:56:44.025Z,84.57
2018-03-06T19:59:11.757Z,79.90
2018-03-06T20:01:39.368Z,80.57
2018-03-06T20:04:07.092Z,84.73
2018-03-06T20:06:34.704Z,82.70
2018-03-06T20:09:02.341Z,81.50
2018-03-06T20:11:29.956Z,87.60
2018-03-06T20:13:57.644Z,83.90
2018-03-06T20:16:25.313Z,85.27
2018-03-06T20:18:58.628Z,84.63
2018-03-06T20:21:26.278Z,82.30
2018-03-06T20:23:53.921Z,84.83
2018-03-06T20:26:21.541Z,83.67
2018-03-06T20:28:49.185Z,81.90
2018-03-06T20:31:22.317Z,81.33
2018-03-06T20:33:49.973Z,78.67
2018-03-06T20:36:17.584Z,81.77
2018-03-06T20:38:50.879Z,85.27
2018-03-06T20:41:18.520Z,81.53
2018-03-06T20:43:46.185Z,87.10
2018-03-06T20:46:19.497Z,82.40
2018-03-06T20:48:47.109Z,79.67
2018-03-06T20:51:14.805Z,83.50
2018-03-06T20:53:48.140Z,82.33
2018-03-06T20:56:15.864Z,82.77
2018-03-06T20:58:43.480Z,87.80
2018-03-06T21:01:11.116Z,80.73
2018-03-06T21:03:38.757Z,83.53
2018-03-06T21:06:06.512Z,88.43
2018-03-06T21:08:34.185Z,84.07
2018-03-06T21:11:01.826Z,76.67
2018-03-06T21:13:29.505Z,79.33
2018-03-06T21:15:57.154Z,81.70
2018-03-06T21:18:25.705Z,82.20
2018-03-06T21:20:53.344Z,79.80
2018-03-06T21:23:20.972Z,81.47
2018-03-06T21:25:48.606Z,83.10
2018-03-06T21:28:16.226Z,84.80
2018-03-06T21:30:43.870Z,81.63
2018-03-06T21:33:11.484Z,81.77
2018-03-06T21:35:39.121Z,82.17
2018-03-06T21:38:06.748Z,82.23
2018-03-06T21:40:34.515Z,85.60
2018-03-06T21:43:02.172Z,84.17
2018-03-06T21:45:29.838Z,82.90
2018-03-06T21:47:57.497Z,86.77
2018-03-06T21:50:25.136Z,87.43
2018-03-06T21:52:52.753Z,86.67
2018-03-06T21:55:20.490Z,85.17
2018-03-06T21:57:48.109Z,87.43
2018-03-06T22:00:15.720Z,85.00
2018-03-06T22:02:43.352Z,83.23
2018-03-06T22:05:10.964Z,80.57
2018-03-06T22:07:38.596Z,83.57
2018-03-06T22:10:06.261Z,83.27
2018-03-06T22:12:33.924Z,84.07
2018-03-06T22:15:01.537Z,83.73
2018-03-06T22:17:29.179Z,79.83
2018-03-06T22:19:56.808Z,77.13
2018-03-06T22:22:24.472Z,77.67
2018-03-06T22:24:52.137Z,80.53
2018-03-06T22:27:19.784Z,78.50
2018-03-06T22:29:47.464Z,84.40
2018-03-06T22:32:15.101Z,82.10
2018-03-06T22:34:42.788Z,83.00
2018-03-06T22:37:10.543Z,79.87
2018-03-06T22:39:38.158Z,79.17
2018-03-06T22:42:05.773Z,81.40
2018-03-06T22:44:33.444Z,78.03
2018-03-06T22:47:01.090Z,84.30
2018-03-06T22:49:28.728Z,79.07
2018-03-06T22:51:56.428Z,83.53
2018-03-06T22:54:24.065Z,82.47
2018-03-06T22:56:51.681Z,82.97
2018-03-06T22:59:19.316Z,79.30
2018-03-06T23:01:46.933Z,74.50
2018-03-06T23:04:14.577Z,75.97
2018-03-06T23:06:42.193Z,79.37
2018-03-06T23:09:09.868Z,75.73
2018-03-06T23:11:37.523Z,78.43
2018-03-06T23:14:05.141Z,80.37
2018-03-06T23:16:32.784Z,79.53
2018-03-06T23:19:00.388Z,74.23
2018-03-06T23:21:28.077Z,82.57
2018-03-06T23:23:55.737Z,85.77
2018-03-06T23:26:23.392Z,86.70
2018-03-06T23:28:51.014Z,88.23
2018-03-06T23:31:18.643Z,89.20
2018-03-06T23:33:46.248Z,87.27
2018-03-06T23:36:13.902Z,90.00
2018-03-06T23:38:41.521Z,90.07
2018-03-06T23:41:09.264Z,91.10
2018-03-06T23:43:36.872Z,93.70
2018-03-06T23:46:04.516Z,94.17
2018-03-06T23:48:32.151Z,91.57
2018-03-06T23:50:59.751Z,87.77
2018-03-06T23:53:27.375Z,91.00
2018-03-06T23:55:54.985Z,90.83
2018-03-06T23:58:22.713Z,91.00
